PWSweather.com
Personal Weather Stations
Station Observations
WD4JKH
Forsyth, GA 31029

Forsyth, GA 31029

Lat: 33.033225, Lon: -83.927995

Elevation: 709

Station Type: Davis Vantage VUE

High Low Average
Temperature 60.5°F15.8°C 45.9°F7.7°C 53.7°F12.1°C
Dew Point 48.8°F9.3°C 37.3°F2.9°C 43.3°F6.3°C
Winds 5.6 mph 9.0 kmh Calm Calm 2.0 mph E3.2 kmh E
Wind Gusts 10.0 mph16.1 kmh -- 5.0 mph8.0 kmh
Humidity 74% 58% 68%
Pressure 30.32 in1026.8 mb 30.16 in1021.3 mb -
Precipitation 0.00 in0.0 mm - -
Hour Temp Dew Point Humidity Winds Wind Gusts Pressure Precip Precip Rate Daily Precip Total
12:02 AM 51.1°F10.6°C 37.7°F3.2°C 60% 1.4 mph S2.3 kmh S 4.0 mph6.4 kmh 30.32 in1026.8 mb 0.00 in0.0 mm 0.00 in0.0 mm 0.00 in0.0 mm
12:07 AM 51.3°F10.7°C 37.5°F3.1°C 59% 1.1 mph ESE1.8 kmh ESE 4.0 mph6.4 kmh 30.32 in1026.8 mb 0.00 in0.0 mm 0.00 in0.0 mm 0.00 in0.0 mm
12:12 AM 51.6°F10.9°C 37.7°F3.2°C 59% 1.8 mph E2.9 kmh E 4.0 mph6.4 kmh 30.32 in1026.8 mb 0.00 in0.0 mm 0.00 in0.0 mm 0.00 in0.0 mm
12:17 AM 51.7°F10.9°C 37.9°F3.3°C 59% Calm Calm 4.0 mph6.4 kmh 30.32 in1026.8 mb 0.00 in0.0 mm 0.00 in0.0 mm 0.00 in0.0 mm
12:22 AM 51.6°F10.9°C 37.8°F3.2°C 59% Calm Calm 3.0 mph4.8 kmh 30.32 in1026.8 mb 0.00 in0.0 mm 0.00 in0.0 mm 0.00 in0.0 mm
12:27 AM 51.6°F10.9°C 37.8°F3.2°C 59% Calm Calm 3.0 mph4.8 kmh 30.32 in1026.8 mb 0.00 in0.0 mm 0.00 in0.0 mm 0.00 in0.0 mm
12:32 AM 51.8°F11.0°C 37.5°F3.1°C 58% 1.0 mph ESE1.6 kmh ESE 1.0 mph1.6 kmh 30.32 in1026.8 mb 0.00 in0.0 mm 0.00 in0.0 mm 0.00 in0.0 mm
12:37 AM 51.8°F11.0°C 37.6°F3.1°C 58% 1.0 mph SE1.6 kmh SE 2.0 mph3.2 kmh 30.32 in1026.8 mb 0.00 in0.0 mm 0.00 in0.0 mm 0.00 in0.0 mm
12:42 AM 51.8°F11.0°C 37.6°F3.1°C 58% 1.7 mph SE2.7 kmh SE 3.0 mph4.8 kmh 30.31 in1026.4 mb 0.00 in0.0 mm 0.00 in0.0 mm 0.00 in0.0 mm
12:47 AM 51.9°F11.1°C 37.7°F3.2°C 58% 1.9 mph SE3.1 kmh SE 3.0 mph4.8 kmh 30.31 in1026.4 mb 0.00 in0.0 mm 0.00 in0.0 mm 0.00 in0.0 mm
12:52 AM 51.8°F11.0°C 37.5°F3.1°C 58% 1.1 mph ESE1.8 kmh ESE 3.0 mph4.8 kmh 30.31 in1026.4 mb 0.00 in0.0 mm 0.00 in0.0 mm 0.00 in0.0 mm
12:57 AM 51.8°F11.0°C 37.5°F3.1°C 58% 1.2 mph E1.9 kmh E 3.0 mph4.8 kmh 30.31 in1026.4 mb 0.00 in0.0 mm 0.00 in0.0 mm 0.00 in0.0 mm
01:02 AM 51.4°F10.8°C 38.1°F3.4°C 60% 1.5 mph NE2.4 kmh NE 3.0 mph4.8 kmh 30.31 in1026.4 mb 0.00 in0.0 mm 0.00 in0.0 mm 0.00 in0.0 mm
01:07 AM 50.9°F10.5°C 38.0°F3.3°C 61% 2.1 mph NNE3.4 kmh NNE 4.0 mph6.4 kmh 30.31 in1026.4 mb 0.00 in0.0 mm 0.00 in0.0 mm 0.00 in0.0 mm
01:12 AM 50.0°F10.0°C 37.6°F3.1°C 62% 3.1 mph NNE5.0 kmh NNE 5.0 mph8.0 kmh 30.31 in1026.4 mb 0.00 in0.0 mm 0.00 in0.0 mm 0.00 in0.0 mm
01:17 AM 49.7°F9.8°C 37.7°F3.2°C 63% 2.5 mph NE4.0 kmh NE 5.0 mph8.0 kmh 30.30 in1026.1 mb 0.00 in0.0 mm 0.00 in0.0 mm 0.00 in0.0 mm
01:22 AM 49.8°F9.9°C 37.8°F3.2°C 63% 1.9 mph E3.1 kmh E 5.0 mph8.0 kmh 30.30 in1026.1 mb 0.00 in0.0 mm 0.00 in0.0 mm 0.00 in0.0 mm
01:27 AM 49.6°F9.8°C 37.6°F3.1°C 63% Calm Calm 5.0 mph8.0 kmh 30.30 in1026.1 mb 0.00 in0.0 mm 0.00 in0.0 mm 0.00 in0.0 mm
01:32 AM 49.5°F9.7°C 37.9°F3.3°C 64% Calm Calm 5.0 mph8.0 kmh 30.30 in1026.1 mb 0.00 in0.0 mm 0.00 in0.0 mm 0.00 in0.0 mm
01:37 AM 49.3°F9.6°C 37.7°F3.2°C 64% 1.8 mph E2.9 kmh E 4.0 mph6.4 kmh 30.30 in1026.1 mb 0.00 in0.0 mm 0.00 in0.0 mm 0.00 in0.0 mm
01:42 AM 49.1°F9.5°C 37.8°F3.2°C 65% 1.5 mph ENE2.4 kmh ENE 2.0 mph3.2 kmh 30.30 in1026.1 mb 0.00 in0.0 mm 0.00 in0.0 mm 0.00 in0.0 mm
01:47 AM 48.9°F9.4°C 37.8°F3.2°C 65% 1.2 mph NE1.9 kmh NE 3.0 mph4.8 kmh 30.30 in1026.1 mb 0.00 in0.0 mm 0.00 in0.0 mm 0.00 in0.0 mm
01:52 AM 48.8°F9.3°C 37.7°F3.2°C 65% 1.2 mph 1.9 kmh 3.0 mph4.8 kmh 30.30 in1026.1 mb 0.00 in0.0 mm 0.00 in0.0 mm 0.00 in0.0 mm
01:57 AM 48.6°F9.2°C 37.5°F3.1°C 65% 1.3 mph NNW2.1 kmh NNW 3.0 mph4.8 kmh 30.30 in1026.1 mb 0.00 in0.0 mm 0.00 in0.0 mm 0.00 in0.0 mm
02:02 AM 48.4°F9.1°C 37.7°F3.2°C 66% Calm Calm 3.0 mph4.8 kmh 30.30 in1026.1 mb 0.00 in0.0 mm 0.00 in0.0 mm 0.00 in0.0 mm
02:07 AM 48.5°F9.2°C 37.4°F3.0°C 65% Calm Calm 3.0 mph4.8 kmh 30.30 in1026.1 mb 0.00 in0.0 mm 0.00 in0.0 mm 0.00 in0.0 mm
02:12 AM 48.5°F9.2°C 37.8°F3.2°C 66% 1.2 mph N1.9 kmh N 3.0 mph4.8 kmh 30.30 in1026.1 mb 0.00 in0.0 mm 0.00 in0.0 mm 0.00 in0.0 mm
02:17 AM 48.4°F9.1°C 37.7°F3.2°C 66% 2.2 mph NE3.5 kmh NE 3.0 mph4.8 kmh 30.30 in1026.1 mb 0.00 in0.0 mm 0.00 in0.0 mm 0.00 in0.0 mm
02:22 AM 48.5°F9.2°C 37.4°F3.0°C 65% 1.7 mph NE2.7 kmh NE 3.0 mph4.8 kmh 30.30 in1026.1 mb 0.00 in0.0 mm 0.00 in0.0 mm 0.00 in0.0 mm
02:27 AM 48.4°F9.1°C 37.7°F3.2°C 66% 1.5 mph 2.4 kmh 3.0 mph4.8 kmh 30.30 in1026.1 mb 0.00 in0.0 mm 0.00 in0.0 mm 0.00 in0.0 mm
02:32 AM 48.2°F9.0°C 37.9°F3.3°C 67% 1.8 mph N2.9 kmh N 3.0 mph4.8 kmh 30.30 in1026.1 mb 0.00 in0.0 mm 0.00 in0.0 mm 0.00 in0.0 mm
02:37 AM 48.0°F8.9°C 37.7°F3.2°C 67% 1.8 mph N2.9 kmh N 4.0 mph6.4 kmh 30.30 in1026.1 mb 0.00 in0.0 mm 0.00 in0.0 mm 0.00 in0.0 mm
02:42 AM 48.0°F8.9°C 37.6°F3.1°C 67% 1.4 mph NNE2.3 kmh NNE 4.0 mph6.4 kmh 30.29 in1025.7 mb 0.00 in0.0 mm 0.00 in0.0 mm 0.00 in0.0 mm
02:47 AM 48.3°F9.1°C 37.5°F3.1°C 66% 1.2 mph NE1.9 kmh NE 4.0 mph6.4 kmh 30.29 in1025.7 mb 0.00 in0.0 mm 0.00 in0.0 mm 0.00 in0.0 mm
02:52 AM 48.5°F9.2°C 37.4°F3.0°C 65% 1.0 mph ENE1.6 kmh ENE 3.0 mph4.8 kmh 30.29 in1025.7 mb 0.00 in0.0 mm 0.00 in0.0 mm 0.00 in0.0 mm
02:57 AM 48.5°F9.2°C 37.8°F3.2°C 66% 1.0 mph ENE1.6 kmh ENE 3.0 mph4.8 kmh 30.29 in1025.7 mb 0.00 in0.0 mm 0.00 in0.0 mm 0.00 in0.0 mm
03:02 AM 48.7°F9.3°C 37.6°F3.1°C 65% 1.1 mph E1.8 kmh E 3.0 mph4.8 kmh 30.29 in1025.7 mb 0.00 in0.0 mm 0.00 in0.0 mm 0.00 in0.0 mm
03:07 AM 48.7°F9.3°C 37.6°F3.1°C 65% Calm Calm 2.0 mph3.2 kmh 30.28 in1025.4 mb 0.00 in0.0 mm 0.00 in0.0 mm 0.00 in0.0 mm
03:12 AM 48.8°F9.3°C 37.3°F2.9°C 64% 1.0 mph ESE1.6 kmh ESE 2.0 mph3.2 kmh 30.28 in1025.4 mb 0.00 in0.0 mm 0.00 in0.0 mm 0.00 in0.0 mm
03:17 AM 49.0°F9.4°C 37.5°F3.1°C 64% 1.0 mph ESE1.6 kmh ESE 2.0 mph3.2 kmh 30.28 in1025.4 mb 0.00 in0.0 mm 0.00 in0.0 mm 0.00 in0.0 mm
03:22 AM 49.0°F9.4°C 37.5°F3.1°C 64% 1.0 mph E1.6 kmh E 2.0 mph3.2 kmh 30.28 in1025.4 mb 0.00 in0.0 mm 0.00 in0.0 mm 0.00 in0.0 mm
03:27 AM 49.1°F9.5°C 37.6°F3.1°C 64% 1.0 mph E1.6 kmh E 2.0 mph3.2 kmh 30.28 in1025.4 mb 0.00 in0.0 mm 0.00 in0.0 mm 0.00 in0.0 mm
03:32 AM 49.3°F9.6°C 38.1°F3.4°C 65% 1.2 mph ESE1.9 kmh ESE 2.0 mph3.2 kmh 30.28 in1025.4 mb 0.00 in0.0 mm 0.00 in0.0 mm 0.00 in0.0 mm
03:37 AM 49.8°F9.9°C 38.6°F3.7°C 65% 1.0 mph SE1.6 kmh SE 2.0 mph3.2 kmh 30.27 in1025.1 mb 0.00 in0.0 mm 0.00 in0.0 mm 0.00 in0.0 mm
03:42 AM 49.9°F9.9°C 38.7°F3.7°C 65% Calm Calm 2.0 mph3.2 kmh 30.27 in1025.1 mb 0.00 in0.0 mm 0.00 in0.0 mm 0.00 in0.0 mm
03:47 AM 49.9°F9.9°C 38.7°F3.7°C 65% Calm Calm 2.0 mph3.2 kmh 30.27 in1025.1 mb 0.00 in0.0 mm 0.00 in0.0 mm 0.00 in0.0 mm
03:52 AM 49.9°F9.9°C 38.7°F3.7°C 65% Calm Calm 1.0 mph1.6 kmh 30.27 in1025.1 mb 0.00 in0.0 mm 0.00 in0.0 mm 0.00 in0.0 mm
03:57 AM 49.9°F9.9°C 38.7°F3.7°C 65% Calm Calm -- 30.27 in1025.1 mb 0.00 in0.0 mm 0.00 in0.0 mm 0.00 in0.0 mm
04:02 AM 49.9°F9.9°C 38.7°F3.7°C 65% 1.0 mph SE1.6 kmh SE 1.0 mph1.6 kmh 30.27 in1025.1 mb 0.00 in0.0 mm 0.00 in0.0 mm 0.00 in0.0 mm
04:07 AM 49.5°F9.7°C 38.7°F3.7°C 66% 1.6 mph SE2.6 kmh SE 2.0 mph3.2 kmh 30.27 in1025.1 mb 0.00 in0.0 mm 0.00 in0.0 mm 0.00 in0.0 mm
04:12 AM 49.0°F9.4°C 37.9°F3.3°C 65% 1.2 mph SE1.9 kmh SE 3.0 mph4.8 kmh 30.27 in1025.1 mb 0.00 in0.0 mm 0.00 in0.0 mm 0.00 in0.0 mm
04:17 AM 48.6°F9.2°C 37.4°F3.0°C 65% 1.0 mph N1.6 kmh N 3.0 mph4.8 kmh 30.27 in1025.1 mb 0.00 in0.0 mm 0.00 in0.0 mm 0.00 in0.0 mm
04:22 AM 48.1°F8.9°C 37.4°F3.0°C 66% 1.7 mph NNE2.7 kmh NNE 3.0 mph4.8 kmh 30.27 in1025.1 mb 0.00 in0.0 mm 0.00 in0.0 mm 0.00 in0.0 mm
04:27 AM 47.8°F8.8°C 37.5°F3.1°C 67% 1.4 mph N2.3 kmh N 3.0 mph4.8 kmh 30.27 in1025.1 mb 0.00 in0.0 mm 0.00 in0.0 mm 0.00 in0.0 mm
04:32 AM 47.6°F8.7°C 37.7°F3.2°C 68% Calm Calm 3.0 mph4.8 kmh 30.27 in1025.1 mb 0.00 in0.0 mm 0.00 in0.0 mm 0.00 in0.0 mm
04:37 AM 47.4°F8.6°C 37.8°F3.2°C 69% 1.0 mph N1.6 kmh N 3.0 mph4.8 kmh 30.27 in1025.1 mb 0.00 in0.0 mm 0.00 in0.0 mm 0.00 in0.0 mm
04:42 AM 47.3°F8.5°C 37.7°F3.2°C 69% 1.0 mph N1.6 kmh N 3.0 mph4.8 kmh 30.27 in1025.1 mb 0.00 in0.0 mm 0.00 in0.0 mm 0.00 in0.0 mm
04:47 AM 47.1°F8.4°C 37.5°F3.1°C 69% 1.0 mph N1.6 kmh N 1.0 mph1.6 kmh 30.27 in1025.1 mb 0.00 in0.0 mm 0.00 in0.0 mm 0.00 in0.0 mm
04:52 AM 47.0°F8.3°C 37.8°F3.2°C 70% 1.0 mph N1.6 kmh N 1.0 mph1.6 kmh 30.27 in1025.1 mb 0.00 in0.0 mm 0.00 in0.0 mm 0.00 in0.0 mm
04:57 AM 46.8°F8.2°C 37.6°F3.1°C 70% Calm Calm 1.0 mph1.6 kmh 30.27 in1025.1 mb 0.00 in0.0 mm 0.00 in0.0 mm 0.00 in0.0 mm
05:02 AM 46.7°F8.2°C 37.5°F3.1°C 70% Calm Calm 1.0 mph1.6 kmh 30.27 in1025.1 mb 0.00 in0.0 mm 0.00 in0.0 mm 0.00 in0.0 mm
05:07 AM 46.8°F8.2°C 37.6°F3.1°C 70% 1.0 mph N1.6 kmh N 2.0 mph3.2 kmh 30.27 in1025.1 mb 0.00 in0.0 mm 0.00 in0.0 mm 0.00 in0.0 mm
05:12 AM 46.8°F8.2°C 37.6°F3.1°C 70% 1.0 mph N1.6 kmh N 2.0 mph3.2 kmh 30.27 in1025.1 mb 0.00 in0.0 mm 0.00 in0.0 mm 0.00 in0.0 mm
05:17 AM 46.9°F8.3°C 37.7°F3.2°C 70% 1.3 mph N2.1 kmh N 2.0 mph3.2 kmh 30.27 in1025.1 mb 0.00 in0.0 mm 0.00 in0.0 mm 0.00 in0.0 mm
05:22 AM 47.1°F8.4°C 37.4°F3.0°C 69% 1.8 mph N2.9 kmh N 3.0 mph4.8 kmh 30.27 in1025.1 mb 0.00 in0.0 mm 0.00 in0.0 mm 0.00 in0.0 mm
05:27 AM 47.2°F8.4°C 37.6°F3.1°C 69% 1.0 mph N1.6 kmh N 3.0 mph4.8 kmh 30.27 in1025.1 mb 0.00 in0.0 mm 0.00 in0.0 mm 0.00 in0.0 mm
05:32 AM 47.1°F8.4°C 37.9°F3.3°C 70% 3.1 mph NNE5.0 kmh NNE 5.0 mph8.0 kmh 30.27 in1025.1 mb 0.00 in0.0 mm 0.00 in0.0 mm 0.00 in0.0 mm
05:37 AM 46.7°F8.2°C 37.9°F3.3°C 71% 1.5 mph NE2.4 kmh NE 5.0 mph8.0 kmh 30.26 in1024.7 mb 0.00 in0.0 mm 0.00 in0.0 mm 0.00 in0.0 mm
05:42 AM 46.4°F8.0°C 37.9°F3.3°C 72% 1.5 mph NNE2.4 kmh NNE 5.0 mph8.0 kmh 30.27 in1025.1 mb 0.00 in0.0 mm 0.00 in0.0 mm 0.00 in0.0 mm
05:48 AM 46.3°F7.9°C 37.9°F3.3°C 72% 1.4 mph NNE2.3 kmh NNE 5.0 mph8.0 kmh 30.27 in1025.1 mb 0.00 in0.0 mm 0.00 in0.0 mm 0.00 in0.0 mm
05:53 AM 46.3°F7.9°C 38.2°F3.4°C 73% 1.1 mph NNE1.8 kmh NNE 4.0 mph6.4 kmh 30.27 in1025.1 mb 0.00 in0.0 mm 0.00 in0.0 mm 0.00 in0.0 mm
05:57 AM 46.2°F7.9°C 38.4°F3.6°C 74% 1.0 mph N1.6 kmh N 3.0 mph4.8 kmh 30.27 in1025.1 mb 0.00 in0.0 mm 0.00 in0.0 mm 0.00 in0.0 mm
06:03 AM 46.1°F7.8°C 38.0°F3.3°C 73% 1.1 mph N1.8 kmh N 3.0 mph4.8 kmh 30.28 in1025.4 mb 0.00 in0.0 mm 0.00 in0.0 mm 0.00 in0.0 mm
06:07 AM 46.2°F7.9°C 38.1°F3.4°C 73% 1.8 mph N2.9 kmh N 3.0 mph4.8 kmh 30.28 in1025.4 mb 0.00 in0.0 mm 0.00 in0.0 mm 0.00 in0.0 mm
06:13 AM 46.1°F7.8°C 38.0°F3.3°C 73% 2.2 mph 3.5 kmh 3.0 mph4.8 kmh 30.28 in1025.4 mb 0.00 in0.0 mm 0.00 in0.0 mm 0.00 in0.0 mm
06:17 AM 46.1°F7.8°C 38.0°F3.3°C 73% 2.0 mph N3.2 kmh N 4.0 mph6.4 kmh 30.27 in1025.1 mb 0.00 in0.0 mm 0.00 in0.0 mm 0.00 in0.0 mm
06:23 AM 46.0°F7.8°C 37.9°F3.3°C 73% 1.4 mph NNE2.3 kmh NNE 4.0 mph6.4 kmh 30.28 in1025.4 mb 0.00 in0.0 mm 0.00 in0.0 mm 0.00 in0.0 mm
06:28 AM 46.0°F7.8°C 37.8°F3.2°C 73% 2.0 mph ENE3.2 kmh ENE 4.0 mph6.4 kmh 30.27 in1025.1 mb 0.00 in0.0 mm 0.00 in0.0 mm 0.00 in0.0 mm
06:32 AM 46.0°F7.8°C 37.8°F3.2°C 73% 2.7 mph NE4.3 kmh NE 5.0 mph8.0 kmh 30.27 in1025.1 mb 0.00 in0.0 mm 0.00 in0.0 mm 0.00 in0.0 mm
06:38 AM 46.0°F7.8°C 37.6°F3.1°C 72% 1.3 mph NNE2.1 kmh NNE 5.0 mph8.0 kmh 30.28 in1025.4 mb 0.00 in0.0 mm 0.00 in0.0 mm 0.00 in0.0 mm
06:42 AM 46.0°F7.8°C 37.6°F3.1°C 72% 1.9 mph NNE3.1 kmh NNE 5.0 mph8.0 kmh 30.28 in1025.4 mb 0.00 in0.0 mm 0.00 in0.0 mm 0.00 in0.0 mm
06:48 AM 45.9°F7.7°C 37.7°F3.2°C 73% 1.4 mph NNE2.3 kmh NNE 5.0 mph8.0 kmh 30.28 in1025.4 mb 0.00 in0.0 mm 0.00 in0.0 mm 0.00 in0.0 mm
06:53 AM 45.9°F7.7°C 37.8°F3.2°C 73% 1.9 mph NE3.1 kmh NE 4.0 mph6.4 kmh 30.28 in1025.4 mb 0.00 in0.0 mm 0.00 in0.0 mm 0.00 in0.0 mm
06:58 AM 45.9°F7.7°C 37.7°F3.2°C 73% 1.0 mph N1.6 kmh N 4.0 mph6.4 kmh 30.28 in1025.4 mb 0.00 in0.0 mm 0.00 in0.0 mm 0.00 in0.0 mm
07:03 AM 45.9°F7.7°C 37.5°F3.1°C 72% 1.1 mph N1.8 kmh N 4.0 mph6.4 kmh 30.28 in1025.4 mb 0.00 in0.0 mm 0.00 in0.0 mm 0.00 in0.0 mm
07:08 AM 46.0°F7.8°C 37.8°F3.2°C 73% 1.0 mph N1.6 kmh N 4.0 mph6.4 kmh 30.28 in1025.4 mb 0.00 in0.0 mm 0.00 in0.0 mm 0.00 in0.0 mm
07:13 AM 46.1°F7.8°C 37.7°F3.2°C 72% 1.5 mph NNE2.4 kmh NNE 3.0 mph4.8 kmh 30.28 in1025.4 mb 0.00 in0.0 mm 0.00 in0.0 mm 0.00 in0.0 mm
07:18 AM 46.5°F8.1°C 37.7°F3.2°C 71% 1.5 mph N2.4 kmh N 3.0 mph4.8 kmh 30.28 in1025.4 mb 0.00 in0.0 mm 0.00 in0.0 mm 0.00 in0.0 mm
07:23 AM 46.8°F8.2°C 37.5°F3.1°C 70% 1.8 mph NE2.9 kmh NE 4.0 mph6.4 kmh 30.28 in1025.4 mb 0.00 in0.0 mm 0.00 in0.0 mm 0.00 in0.0 mm
07:28 AM 46.8°F8.2°C 37.6°F3.1°C 70% 2.2 mph NE3.5 kmh NE 4.0 mph6.4 kmh 30.28 in1025.4 mb 0.00 in0.0 mm 0.00 in0.0 mm 0.00 in0.0 mm
07:33 AM 46.8°F8.2°C 37.5°F3.1°C 70% 3.3 mph NE5.3 kmh NE 5.0 mph8.0 kmh 30.28 in1025.4 mb 0.00 in0.0 mm 0.00 in0.0 mm 0.00 in0.0 mm
07:38 AM 46.6°F8.1°C 37.3°F2.9°C 70% 2.6 mph NE4.2 kmh NE 5.0 mph8.0 kmh 30.28 in1025.4 mb 0.00 in0.0 mm 0.00 in0.0 mm 0.00 in0.0 mm
07:43 AM 46.5°F8.1°C 37.3°F2.9°C 70% 3.6 mph NE5.8 kmh NE 5.0 mph8.0 kmh 30.28 in1025.4 mb 0.00 in0.0 mm 0.00 in0.0 mm 0.00 in0.0 mm
07:48 AM 46.4°F8.0°C 37.5°F3.1°C 71% 1.7 mph NNE2.7 kmh NNE 5.0 mph8.0 kmh 30.28 in1025.4 mb 0.00 in0.0 mm 0.00 in0.0 mm 0.00 in0.0 mm
07:53 AM 46.2°F7.9°C 37.4°F3.0°C 71% 2.0 mph NNE3.2 kmh NNE 5.0 mph8.0 kmh 30.29 in1025.7 mb 0.00 in0.0 mm 0.00 in0.0 mm 0.00 in0.0 mm
07:58 AM 46.0°F7.8°C 37.6°F3.1°C 72% 1.9 mph NE3.1 kmh NE 5.0 mph8.0 kmh 30.29 in1025.7 mb 0.00 in0.0 mm 0.00 in0.0 mm 0.00 in0.0 mm
08:03 AM 45.9°F7.7°C 37.4°F3.0°C 72% 2.9 mph NE4.7 kmh NE 6.0 mph9.7 kmh 30.29 in1025.7 mb 0.00 in0.0 mm 0.00 in0.0 mm 0.00 in0.0 mm
08:08 AM 45.9°F7.7°C 37.8°F3.2°C 73% 3.0 mph NE4.8 kmh NE 6.0 mph9.7 kmh 30.29 in1025.7 mb 0.00 in0.0 mm 0.00 in0.0 mm 0.00 in0.0 mm
08:13 AM 46.1°F7.8°C 37.7°F3.2°C 72% 2.9 mph NE4.7 kmh NE 6.0 mph9.7 kmh 30.30 in1026.1 mb 0.00 in0.0 mm 0.00 in0.0 mm 0.00 in0.0 mm
08:18 AM 46.2°F7.9°C 37.8°F3.2°C 72% 2.5 mph NE4.0 kmh NE 6.0 mph9.7 kmh 30.30 in1026.1 mb 0.00 in0.0 mm 0.00 in0.0 mm 0.00 in0.0 mm
08:23 AM 46.2°F7.9°C 37.8°F3.2°C 72% 2.0 mph NE3.2 kmh NE 5.0 mph8.0 kmh 30.30 in1026.1 mb 0.00 in0.0 mm 0.00 in0.0 mm 0.00 in0.0 mm
08:28 AM 46.2°F7.9°C 37.8°F3.2°C 72% 3.2 mph NE5.1 kmh NE 5.0 mph8.0 kmh 30.31 in1026.4 mb 0.00 in0.0 mm 0.00 in0.0 mm 0.00 in0.0 mm
08:33 AM 46.1°F7.8°C 37.7°F3.2°C 72% 1.5 mph NE2.4 kmh NE 4.0 mph6.4 kmh 30.31 in1026.4 mb 0.00 in0.0 mm 0.00 in0.0 mm 0.00 in0.0 mm
08:38 AM 46.2°F7.9°C 37.7°F3.2°C 72% 2.7 mph NE4.3 kmh NE 4.0 mph6.4 kmh 30.31 in1026.4 mb 0.00 in0.0 mm 0.00 in0.0 mm 0.00 in0.0 mm
08:43 AM 46.3°F7.9°C 38.2°F3.4°C 73% 2.7 mph NE4.3 kmh NE 5.0 mph8.0 kmh 30.31 in1026.4 mb 0.00 in0.0 mm 0.00 in0.0 mm 0.00 in0.0 mm
08:48 AM 46.4°F8.0°C 38.3°F3.5°C 73% 2.8 mph NE4.5 kmh NE 5.0 mph8.0 kmh 30.31 in1026.4 mb 0.00 in0.0 mm 0.00 in0.0 mm 0.00 in0.0 mm
08:53 AM 46.5°F8.1°C 38.4°F3.6°C 73% 1.8 mph NE2.9 kmh NE 5.0 mph8.0 kmh 30.31 in1026.4 mb 0.00 in0.0 mm 0.00 in0.0 mm 0.00 in0.0 mm
08:58 AM 46.5°F8.1°C 38.4°F3.6°C 73% 1.6 mph NE2.6 kmh NE 5.0 mph8.0 kmh 30.31 in1026.4 mb 0.00 in0.0 mm 0.00 in0.0 mm 0.00 in0.0 mm
09:03 AM 46.5°F8.1°C 38.4°F3.6°C 73% 1.6 mph NE2.6 kmh NE 4.0 mph6.4 kmh 30.31 in1026.4 mb 0.00 in0.0 mm 0.00 in0.0 mm 0.00 in0.0 mm
09:08 AM 46.8°F8.2°C 39.0°F3.9°C 74% 1.7 mph NE2.7 kmh NE 5.0 mph8.0 kmh 30.31 in1026.4 mb 0.00 in0.0 mm 0.00 in0.0 mm 0.00 in0.0 mm
09:13 AM 47.1°F8.4°C 39.0°F3.9°C 73% 3.5 mph NE5.6 kmh NE 6.0 mph9.7 kmh 30.31 in1026.4 mb 0.00 in0.0 mm 0.00 in0.0 mm 0.00 in0.0 mm
09:18 AM 47.2°F8.4°C 39.1°F3.9°C 73% 2.6 mph NE4.2 kmh NE 7.0 mph11.3 kmh 30.31 in1026.4 mb 0.00 in0.0 mm 0.00 in0.0 mm 0.00 in0.0 mm
09:23 AM 47.3°F8.5°C 39.2°F4.0°C 73% 1.9 mph NE3.1 kmh NE 7.0 mph11.3 kmh 30.31 in1026.4 mb 0.00 in0.0 mm 0.00 in0.0 mm 0.00 in0.0 mm
09:28 AM 47.4°F8.6°C 39.3°F4.1°C 73% Calm Calm 7.0 mph11.3 kmh 30.31 in1026.4 mb 0.00 in0.0 mm 0.00 in0.0 mm 0.00 in0.0 mm
09:33 AM 47.5°F8.6°C 39.4°F4.1°C 73% 2.3 mph NE3.7 kmh NE 7.0 mph11.3 kmh 30.31 in1026.4 mb 0.00 in0.0 mm 0.00 in0.0 mm 0.00 in0.0 mm
09:38 AM 47.4°F8.6°C 39.3°F4.1°C 73% 3.8 mph NE6.1 kmh NE 5.0 mph8.0 kmh 30.31 in1026.4 mb 0.00 in0.0 mm 0.00 in0.0 mm 0.00 in0.0 mm
09:43 AM 47.6°F8.7°C 39.5°F4.2°C 73% 4.9 mph NE7.9 kmh NE 8.0 mph12.9 kmh 30.31 in1026.4 mb 0.00 in0.0 mm 0.00 in0.0 mm 0.00 in0.0 mm
09:48 AM 47.8°F8.8°C 39.6°F4.2°C 73% 3.1 mph NE5.0 kmh NE 8.0 mph12.9 kmh 30.31 in1026.4 mb 0.00 in0.0 mm 0.00 in0.0 mm 0.00 in0.0 mm
09:53 AM 47.9°F8.8°C 39.7°F4.3°C 73% 2.9 mph NE4.7 kmh NE 8.0 mph12.9 kmh 30.30 in1026.1 mb 0.00 in0.0 mm 0.00 in0.0 mm 0.00 in0.0 mm
09:58 AM 47.9°F8.8°C 39.7°F4.3°C 73% 5.4 mph NE8.7 kmh NE 8.0 mph12.9 kmh 30.30 in1026.1 mb 0.00 in0.0 mm 0.00 in0.0 mm 0.00 in0.0 mm
10:03 AM 48.2°F9.0°C 39.9°F4.4°C 73% 3.1 mph NE5.0 kmh NE 8.0 mph12.9 kmh 30.30 in1026.1 mb 0.00 in0.0 mm 0.00 in0.0 mm 0.00 in0.0 mm
10:08 AM 48.5°F9.2°C 39.9°F4.4°C 72% 2.2 mph NE3.5 kmh NE 8.0 mph12.9 kmh 30.30 in1026.1 mb 0.00 in0.0 mm 0.00 in0.0 mm 0.00 in0.0 mm
10:13 AM 49.0°F9.4°C 40.5°F4.7°C 72% 3.1 mph NE5.0 kmh NE 8.0 mph12.9 kmh 30.30 in1026.1 mb 0.00 in0.0 mm 0.00 in0.0 mm 0.00 in0.0 mm
10:18 AM 49.3°F9.6°C 40.4°F4.7°C 71% 1.8 mph ENE2.9 kmh ENE 6.0 mph9.7 kmh 30.30 in1026.1 mb 0.00 in0.0 mm 0.00 in0.0 mm 0.00 in0.0 mm
10:23 AM 49.8°F9.9°C 40.5°F4.7°C 70% 3.2 mph NE5.1 kmh NE 6.0 mph9.7 kmh 30.30 in1026.1 mb 0.00 in0.0 mm 0.00 in0.0 mm 0.00 in0.0 mm
10:28 AM 50.2°F10.1°C 40.9°F4.9°C 70% 4.7 mph NE7.6 kmh NE 7.0 mph11.3 kmh 30.30 in1026.1 mb 0.00 in0.0 mm 0.00 in0.0 mm 0.00 in0.0 mm
10:33 AM 50.9°F10.5°C 41.2°F5.1°C 69% 4.6 mph NE7.4 kmh NE 7.0 mph11.3 kmh 30.29 in1025.7 mb 0.00 in0.0 mm 0.00 in0.0 mm 0.00 in0.0 mm
10:38 AM 51.4°F10.8°C 41.7°F5.4°C 69% 5.6 mph NE9.0 kmh NE 9.0 mph14.5 kmh 30.29 in1025.7 mb 0.00 in0.0 mm 0.00 in0.0 mm 0.00 in0.0 mm
10:43 AM 51.8°F11.0°C 42.1°F5.6°C 69% 4.9 mph NE7.9 kmh NE 9.0 mph14.5 kmh 30.30 in1026.1 mb 0.00 in0.0 mm 0.00 in0.0 mm 0.00 in0.0 mm
10:48 AM 52.4°F11.3°C 42.6°F5.9°C 69% 3.2 mph ENE5.1 kmh ENE 9.0 mph14.5 kmh 30.30 in1026.1 mb 0.00 in0.0 mm 0.00 in0.0 mm 0.00 in0.0 mm
10:53 AM 53.3°F11.8°C 43.5°F6.4°C 69% 3.5 mph NE5.6 kmh NE 9.0 mph14.5 kmh 30.30 in1026.1 mb 0.00 in0.0 mm 0.00 in0.0 mm 0.00 in0.0 mm
10:58 AM 53.7°F12.1°C 43.8°F6.6°C 69% 2.6 mph NE4.2 kmh NE 8.0 mph12.9 kmh 30.30 in1026.1 mb 0.00 in0.0 mm 0.00 in0.0 mm 0.00 in0.0 mm
11:03 AM 54.3°F12.4°C 44.5°F6.9°C 69% 1.3 mph E2.1 kmh E 6.0 mph9.7 kmh 30.30 in1026.1 mb 0.00 in0.0 mm 0.00 in0.0 mm 0.00 in0.0 mm
11:08 AM 54.9°F12.7°C 44.1°F6.7°C 67% 1.7 mph E2.7 kmh E 6.0 mph9.7 kmh 30.29 in1025.7 mb 0.00 in0.0 mm 0.00 in0.0 mm 0.00 in0.0 mm
11:13 AM 54.8°F12.7°C 44.0°F6.7°C 67% 4.8 mph E7.7 kmh E 7.0 mph11.3 kmh 30.29 in1025.7 mb 0.00 in0.0 mm 0.00 in0.0 mm 0.00 in0.0 mm
11:18 AM 54.9°F12.7°C 44.7°F7.1°C 68% 2.4 mph ENE3.9 kmh ENE 7.0 mph11.3 kmh 30.29 in1025.7 mb 0.00 in0.0 mm 0.00 in0.0 mm 0.00 in0.0 mm
11:23 AM 55.3°F12.9°C 44.7°F7.1°C 67% 2.8 mph E4.5 kmh E 7.0 mph11.3 kmh 30.29 in1025.7 mb 0.00 in0.0 mm 0.00 in0.0 mm 0.00 in0.0 mm
11:28 AM 55.7°F13.2°C 45.0°F7.2°C 67% 2.8 mph NE4.5 kmh NE 7.0 mph11.3 kmh 30.29 in1025.7 mb 0.00 in0.0 mm 0.00 in0.0 mm 0.00 in0.0 mm
11:33 AM 56.2°F13.4°C 45.5°F7.5°C 67% 2.7 mph E4.3 kmh E 5.0 mph8.0 kmh 30.29 in1025.7 mb 0.00 in0.0 mm 0.00 in0.0 mm 0.00 in0.0 mm
11:38 AM 56.6°F13.7°C 45.8°F7.7°C 67% 3.5 mph E5.6 kmh E 6.0 mph9.7 kmh 30.29 in1025.7 mb 0.00 in0.0 mm 0.00 in0.0 mm 0.00 in0.0 mm
11:43 AM 56.8°F13.8°C 46.5°F8.1°C 68% 3.1 mph E5.0 kmh E 6.0 mph9.7 kmh 30.29 in1025.7 mb 0.00 in0.0 mm 0.00 in0.0 mm 0.00 in0.0 mm
11:48 AM 56.9°F13.8°C 46.4°F8.0°C 68% 3.6 mph ENE5.8 kmh ENE 7.0 mph11.3 kmh 30.29 in1025.7 mb 0.00 in0.0 mm 0.00 in0.0 mm 0.00 in0.0 mm
11:53 AM 57.1°F13.9°C 46.6°F8.1°C 68% 3.5 mph E5.6 kmh E 7.0 mph11.3 kmh 30.29 in1025.7 mb 0.00 in0.0 mm 0.00 in0.0 mm 0.00 in0.0 mm
11:58 AM 57.2°F14.0°C 46.5°F8.1°C 67% 2.7 mph E4.3 kmh E 7.0 mph11.3 kmh 30.28 in1025.4 mb 0.00 in0.0 mm 0.00 in0.0 mm 0.00 in0.0 mm
12:03 PM 57.4°F14.1°C 46.3°F7.9°C 66% 3.3 mph E5.3 kmh E 7.0 mph11.3 kmh 30.28 in1025.4 mb 0.00 in0.0 mm 0.00 in0.0 mm 0.00 in0.0 mm
12:08 PM 57.3°F14.1°C 46.2°F7.9°C 66% 3.5 mph E5.6 kmh E 9.0 mph14.5 kmh 30.28 in1025.4 mb 0.00 in0.0 mm 0.00 in0.0 mm 0.00 in0.0 mm
12:13 PM 57.4°F14.1°C 45.7°F7.6°C 65% 5.6 mph E9.0 kmh E 9.0 mph14.5 kmh 30.28 in1025.4 mb 0.00 in0.0 mm 0.00 in0.0 mm 0.00 in0.0 mm
12:18 PM 57.6°F14.2°C 45.9°F7.7°C 65% 3.3 mph E5.3 kmh E 10.0 mph16.1 kmh 30.28 in1025.4 mb 0.00 in0.0 mm 0.00 in0.0 mm 0.00 in0.0 mm
12:23 PM 57.8°F14.3°C 45.8°F7.7°C 64% 3.2 mph E5.1 kmh E 10.0 mph16.1 kmh 30.27 in1025.1 mb 0.00 in0.0 mm 0.00 in0.0 mm 0.00 in0.0 mm
12:28 PM 57.9°F14.4°C 45.9°F7.7°C 64% 5.0 mph E8.0 kmh E 10.0 mph16.1 kmh 30.27 in1025.1 mb 0.00 in0.0 mm 0.00 in0.0 mm 0.00 in0.0 mm
12:33 PM 57.9°F14.4°C 45.9°F7.7°C 64% 1.9 mph E3.1 kmh E 10.0 mph16.1 kmh 30.27 in1025.1 mb 0.00 in0.0 mm 0.00 in0.0 mm 0.00 in0.0 mm
12:38 PM 58.1°F14.5°C 46.1°F7.8°C 64% 3.5 mph E5.6 kmh E 8.0 mph12.9 kmh 30.27 in1025.1 mb 0.00 in0.0 mm 0.00 in0.0 mm 0.00 in0.0 mm
12:43 PM 58.0°F14.4°C 46.0°F7.8°C 64% 3.0 mph E4.8 kmh E 8.0 mph12.9 kmh 30.27 in1025.1 mb 0.00 in0.0 mm 0.00 in0.0 mm 0.00 in0.0 mm
12:48 PM 58.2°F14.6°C 46.2°F7.9°C 64% 2.0 mph ENE3.2 kmh ENE 7.0 mph11.3 kmh 30.27 in1025.1 mb 0.00 in0.0 mm 0.00 in0.0 mm 0.00 in0.0 mm
12:53 PM 58.4°F14.7°C 46.4°F8.0°C 64% 3.0 mph E4.8 kmh E 7.0 mph11.3 kmh 30.26 in1024.7 mb 0.00 in0.0 mm 0.00 in0.0 mm 0.00 in0.0 mm
12:58 PM 58.4°F14.7°C 46.4°F8.0°C 64% 2.2 mph ENE3.5 kmh ENE 7.0 mph11.3 kmh 30.26 in1024.7 mb 0.00 in0.0 mm 0.00 in0.0 mm 0.00 in0.0 mm
01:03 PM 58.7°F14.8°C 46.5°F8.1°C 64% 3.3 mph ENE5.3 kmh ENE 6.0 mph9.7 kmh 30.26 in1024.7 mb 0.00 in0.0 mm 0.00 in0.0 mm 0.00 in0.0 mm
01:08 PM 58.7°F14.8°C 46.5°F8.1°C 64% 3.3 mph ENE5.3 kmh ENE 6.0 mph9.7 kmh 30.25 in1024.4 mb 0.00 in0.0 mm 0.00 in0.0 mm 0.00 in0.0 mm
01:13 PM 59.3°F15.2°C 46.8°F8.2°C 63% 2.1 mph E3.4 kmh E 6.0 mph9.7 kmh 30.25 in1024.4 mb 0.00 in0.0 mm 0.00 in0.0 mm 0.00 in0.0 mm
01:18 PM 59.5°F15.3°C 47.0°F8.3°C 63% 1.6 mph NE2.6 kmh NE 6.0 mph9.7 kmh 30.25 in1024.4 mb 0.00 in0.0 mm 0.00 in0.0 mm 0.00 in0.0 mm
01:23 PM 59.4°F15.2°C 46.9°F8.3°C 63% 5.1 mph NE8.2 kmh NE 8.0 mph12.9 kmh 30.24 in1024.0 mb 0.00 in0.0 mm 0.00 in0.0 mm 0.00 in0.0 mm
01:28 PM 59.5°F15.3°C 47.0°F8.3°C 63% 3.7 mph NE6.0 kmh NE 9.0 mph14.5 kmh 30.24 in1024.0 mb 0.00 in0.0 mm 0.00 in0.0 mm 0.00 in0.0 mm
01:33 PM 59.8°F15.4°C 47.2°F8.4°C 63% 2.2 mph ENE3.5 kmh ENE 9.0 mph14.5 kmh 30.24 in1024.0 mb 0.00 in0.0 mm 0.00 in0.0 mm 0.00 in0.0 mm
01:38 PM 59.7°F15.4°C 47.2°F8.4°C 63% 5.3 mph E8.5 kmh E 9.0 mph14.5 kmh 30.23 in1023.7 mb 0.00 in0.0 mm 0.00 in0.0 mm 0.00 in0.0 mm
01:43 PM 59.7°F15.4°C 47.2°F8.4°C 63% 4.0 mph ESE6.4 kmh ESE 8.0 mph12.9 kmh 30.23 in1023.7 mb 0.00 in0.0 mm 0.00 in0.0 mm 0.00 in0.0 mm
01:48 PM 59.7°F15.4°C 47.1°F8.4°C 63% 4.4 mph E7.1 kmh E 7.0 mph11.3 kmh 30.23 in1023.7 mb 0.00 in0.0 mm 0.00 in0.0 mm 0.00 in0.0 mm
01:53 PM 59.7°F15.4°C 47.1°F8.4°C 63% 3.5 mph E5.6 kmh E 7.0 mph11.3 kmh 30.23 in1023.7 mb 0.00 in0.0 mm 0.00 in0.0 mm 0.00 in0.0 mm
01:58 PM 59.8°F15.4°C 47.3°F8.5°C 63% 2.3 mph ENE3.7 kmh ENE 7.0 mph11.3 kmh 30.23 in1023.7 mb 0.00 in0.0 mm 0.00 in0.0 mm 0.00 in0.0 mm
02:03 PM 59.9°F15.5°C 47.4°F8.6°C 63% 2.8 mph E4.5 kmh E 7.0 mph11.3 kmh 30.23 in1023.7 mb 0.00 in0.0 mm 0.00 in0.0 mm 0.00 in0.0 mm
02:08 PM 59.9°F15.5°C 47.4°F8.6°C 63% 1.9 mph ENE3.1 kmh ENE 7.0 mph11.3 kmh 30.23 in1023.7 mb 0.00 in0.0 mm 0.00 in0.0 mm 0.00 in0.0 mm
02:13 PM 59.9°F15.5°C 47.4°F8.6°C 63% 3.1 mph E5.0 kmh E 6.0 mph9.7 kmh 30.22 in1023.4 mb 0.00 in0.0 mm 0.00 in0.0 mm 0.00 in0.0 mm
02:18 PM 60.0°F15.6°C 47.5°F8.6°C 63% 1.5 mph E2.4 kmh E 6.0 mph9.7 kmh 30.22 in1023.4 mb 0.00 in0.0 mm 0.00 in0.0 mm 0.00 in0.0 mm
02:23 PM 60.0°F15.6°C 47.5°F8.6°C 63% 4.1 mph ENE6.6 kmh ENE 6.0 mph9.7 kmh 30.22 in1023.4 mb 0.00 in0.0 mm 0.00 in0.0 mm 0.00 in0.0 mm
02:28 PM 59.9°F15.5°C 47.4°F8.6°C 63% 3.2 mph E5.1 kmh E 6.0 mph9.7 kmh 30.22 in1023.4 mb 0.00 in0.0 mm 0.00 in0.0 mm 0.00 in0.0 mm
02:33 PM 59.8°F15.4°C 47.3°F8.5°C 63% 2.7 mph E4.3 kmh E 6.0 mph9.7 kmh 30.22 in1023.4 mb 0.00 in0.0 mm 0.00 in0.0 mm 0.00 in0.0 mm
02:38 PM 59.7°F15.4°C 47.6°F8.7°C 64% 1.4 mph E2.3 kmh E 6.0 mph9.7 kmh 30.22 in1023.4 mb 0.00 in0.0 mm 0.00 in0.0 mm 0.00 in0.0 mm
02:43 PM 59.9°F15.5°C 47.8°F8.8°C 64% 3.4 mph E5.5 kmh E 6.0 mph9.7 kmh 30.21 in1023.0 mb 0.00 in0.0 mm 0.00 in0.0 mm 0.00 in0.0 mm
02:48 PM 59.8°F15.4°C 47.3°F8.5°C 63% 3.1 mph E5.0 kmh E 5.0 mph8.0 kmh 30.21 in1023.0 mb 0.00 in0.0 mm 0.00 in0.0 mm 0.00 in0.0 mm
02:53 PM 59.7°F15.4°C 47.6°F8.7°C 64% 3.0 mph E4.8 kmh E 7.0 mph11.3 kmh 30.21 in1023.0 mb 0.00 in0.0 mm 0.00 in0.0 mm 0.00 in0.0 mm
02:58 PM 59.6°F15.3°C 47.1°F8.4°C 63% 3.3 mph ENE5.3 kmh ENE 7.0 mph11.3 kmh 30.21 in1023.0 mb 0.00 in0.0 mm 0.00 in0.0 mm 0.00 in0.0 mm
03:03 PM 59.7°F15.4°C 47.6°F8.7°C 64% 1.6 mph E2.6 kmh E 7.0 mph11.3 kmh 30.21 in1023.0 mb 0.00 in0.0 mm 0.00 in0.0 mm 0.00 in0.0 mm
03:08 PM 59.9°F15.5°C 47.8°F8.8°C 64% 1.0 mph E1.6 kmh E 7.0 mph11.3 kmh 30.21 in1023.0 mb 0.00 in0.0 mm 0.00 in0.0 mm 0.00 in0.0 mm
03:13 PM 60.1°F15.6°C 47.6°F8.7°C 63% 1.0 mph E1.6 kmh E 6.0 mph9.7 kmh 30.21 in1023.0 mb 0.00 in0.0 mm 0.00 in0.0 mm 0.00 in0.0 mm
03:18 PM 60.0°F15.6°C 47.5°F8.6°C 63% 2.9 mph ENE4.7 kmh ENE 5.0 mph8.0 kmh 30.21 in1023.0 mb 0.00 in0.0 mm 0.00 in0.0 mm 0.00 in0.0 mm
03:23 PM 60.0°F15.6°C 47.5°F8.6°C 63% 4.4 mph NE7.1 kmh NE 7.0 mph11.3 kmh 30.21 in1023.0 mb 0.00 in0.0 mm 0.00 in0.0 mm 0.00 in0.0 mm
03:28 PM 59.9°F15.5°C 47.4°F8.6°C 63% 4.4 mph E7.1 kmh E 7.0 mph11.3 kmh 30.20 in1022.7 mb 0.00 in0.0 mm 0.00 in0.0 mm 0.00 in0.0 mm
03:33 PM 59.8°F15.4°C 47.6°F8.7°C 64% 3.2 mph E5.1 kmh E 7.0 mph11.3 kmh 30.20 in1022.7 mb 0.00 in0.0 mm 0.00 in0.0 mm 0.00 in0.0 mm
03:38 PM 59.8°F15.4°C 47.7°F8.7°C 64% 3.3 mph E5.3 kmh E 7.0 mph11.3 kmh 30.20 in1022.7 mb 0.00 in0.0 mm 0.00 in0.0 mm 0.00 in0.0 mm
03:43 PM 60.0°F15.6°C 47.9°F8.8°C 64% 2.9 mph ENE4.7 kmh ENE 7.0 mph11.3 kmh 30.20 in1022.7 mb 0.00 in0.0 mm 0.00 in0.0 mm 0.00 in0.0 mm
03:48 PM 60.2°F15.7°C 48.1°F8.9°C 64% 3.1 mph ENE5.0 kmh ENE 7.0 mph11.3 kmh 30.19 in1022.4 mb 0.00 in0.0 mm 0.00 in0.0 mm 0.00 in0.0 mm
03:53 PM 60.5°F15.8°C 48.0°F8.9°C 63% 2.9 mph ENE4.7 kmh ENE 7.0 mph11.3 kmh 30.19 in1022.4 mb 0.00 in0.0 mm 0.00 in0.0 mm 0.00 in0.0 mm
03:58 PM 60.5°F15.8°C 48.4°F9.1°C 64% 2.8 mph ENE4.5 kmh ENE 8.0 mph12.9 kmh 30.19 in1022.4 mb 0.00 in0.0 mm 0.00 in0.0 mm 0.00 in0.0 mm
04:03 PM 60.4°F15.8°C 47.9°F8.8°C 63% 4.1 mph ENE6.6 kmh ENE 8.0 mph12.9 kmh 30.19 in1022.4 mb 0.00 in0.0 mm 0.00 in0.0 mm 0.00 in0.0 mm
04:08 PM 60.3°F15.7°C 48.2°F9.0°C 64% 3.0 mph E4.8 kmh E 8.0 mph12.9 kmh 30.19 in1022.4 mb 0.00 in0.0 mm 0.00 in0.0 mm 0.00 in0.0 mm
04:13 PM 60.5°F15.8°C 47.8°F8.8°C 63% 3.5 mph ENE5.6 kmh ENE 8.0 mph12.9 kmh 30.18 in1022.0 mb 0.00 in0.0 mm 0.00 in0.0 mm 0.00 in0.0 mm
04:18 PM 60.3°F15.7°C 48.1°F8.9°C 64% 3.0 mph E4.8 kmh E 8.0 mph12.9 kmh 30.18 in1022.0 mb 0.00 in0.0 mm 0.00 in0.0 mm 0.00 in0.0 mm
04:23 PM 60.4°F15.8°C 48.2°F9.0°C 64% 3.7 mph E6.0 kmh E 8.0 mph12.9 kmh 30.19 in1022.4 mb 0.00 in0.0 mm 0.00 in0.0 mm 0.00 in0.0 mm
04:28 PM 60.3°F15.7°C 48.2°F9.0°C 64% 3.4 mph E5.5 kmh E 8.0 mph12.9 kmh 30.19 in1022.4 mb 0.00 in0.0 mm 0.00 in0.0 mm 0.00 in0.0 mm
04:33 PM 60.2°F15.7°C 48.1°F8.9°C 64% 2.3 mph E3.7 kmh E 8.0 mph12.9 kmh 30.19 in1022.4 mb 0.00 in0.0 mm 0.00 in0.0 mm 0.00 in0.0 mm
04:38 PM 60.2°F15.7°C 48.1°F8.9°C 64% 2.3 mph E3.7 kmh E 6.0 mph9.7 kmh 30.18 in1022.0 mb 0.00 in0.0 mm 0.00 in0.0 mm 0.00 in0.0 mm
04:43 PM 60.2°F15.7°C 48.1°F8.9°C 64% 3.5 mph E5.6 kmh E 5.0 mph8.0 kmh 30.18 in1022.0 mb 0.00 in0.0 mm 0.00 in0.0 mm 0.00 in0.0 mm
04:48 PM 60.3°F15.7°C 48.6°F9.2°C 65% 1.7 mph E2.7 kmh E 5.0 mph8.0 kmh 30.18 in1022.0 mb 0.00 in0.0 mm 0.00 in0.0 mm 0.00 in0.0 mm
04:53 PM 60.2°F15.7°C 48.5°F9.2°C 65% 2.3 mph NE3.7 kmh NE 6.0 mph9.7 kmh 30.18 in1022.0 mb 0.00 in0.0 mm 0.00 in0.0 mm 0.00 in0.0 mm
04:58 PM 60.2°F15.7°C 48.5°F9.2°C 65% 1.9 mph ENE3.1 kmh ENE 6.0 mph9.7 kmh 30.18 in1022.0 mb 0.00 in0.0 mm 0.00 in0.0 mm 0.00 in0.0 mm
05:03 PM 60.2°F15.7°C 48.4°F9.1°C 65% 1.7 mph E2.7 kmh E 6.0 mph9.7 kmh 30.18 in1022.0 mb 0.00 in0.0 mm 0.00 in0.0 mm 0.00 in0.0 mm
05:08 PM 60.2°F15.7°C 48.4°F9.1°C 65% 3.0 mph ENE4.8 kmh ENE 6.0 mph9.7 kmh 30.18 in1022.0 mb 0.00 in0.0 mm 0.00 in0.0 mm 0.00 in0.0 mm
05:13 PM 60.1°F15.6°C 48.8°F9.3°C 66% 2.3 mph E3.7 kmh E 5.0 mph8.0 kmh 30.18 in1022.0 mb 0.00 in0.0 mm 0.00 in0.0 mm 0.00 in0.0 mm
05:18 PM 60.0°F15.6°C 48.8°F9.3°C 66% 1.0 mph E1.6 kmh E 5.0 mph8.0 kmh 30.18 in1022.0 mb 0.00 in0.0 mm 0.00 in0.0 mm 0.00 in0.0 mm
05:23 PM 59.9°F15.5°C 48.1°F8.9°C 65% 2.1 mph ESE3.4 kmh ESE 5.0 mph8.0 kmh 30.18 in1022.0 mb 0.00 in0.0 mm 0.00 in0.0 mm 0.00 in0.0 mm
05:28 PM 59.8°F15.4°C 48.6°F9.2°C 66% 1.9 mph E3.1 kmh E 4.0 mph6.4 kmh 30.18 in1022.0 mb 0.00 in0.0 mm 0.00 in0.0 mm 0.00 in0.0 mm
05:33 PM 59.7°F15.4°C 48.5°F9.2°C 66% 1.3 mph E2.1 kmh E 3.0 mph4.8 kmh 30.18 in1022.0 mb 0.00 in0.0 mm 0.00 in0.0 mm 0.00 in0.0 mm
05:38 PM 59.6°F15.3°C 48.4°F9.1°C 66% 2.6 mph E4.2 kmh E 3.0 mph4.8 kmh 30.18 in1022.0 mb 0.00 in0.0 mm 0.00 in0.0 mm 0.00 in0.0 mm
05:43 PM 59.5°F15.3°C 48.3°F9.1°C 66% 2.1 mph E3.4 kmh E 3.0 mph4.8 kmh 30.18 in1022.0 mb 0.00 in0.0 mm 0.00 in0.0 mm 0.00 in0.0 mm
05:48 PM 59.5°F15.3°C 48.7°F9.3°C 67% 1.5 mph E2.4 kmh E 4.0 mph6.4 kmh 30.18 in1022.0 mb 0.00 in0.0 mm 0.00 in0.0 mm 0.00 in0.0 mm
05:53 PM 59.3°F15.2°C 48.5°F9.2°C 67% 1.7 mph ENE2.7 kmh ENE 4.0 mph6.4 kmh 30.18 in1022.0 mb 0.00 in0.0 mm 0.00 in0.0 mm 0.00 in0.0 mm
05:58 PM 59.3°F15.2°C 48.3°F9.1°C 67% 2.0 mph ENE3.2 kmh ENE 4.0 mph6.4 kmh 30.18 in1022.0 mb 0.00 in0.0 mm 0.00 in0.0 mm 0.00 in0.0 mm
06:03 PM 59.2°F15.1°C 48.6°F9.2°C 68% 1.6 mph ENE2.6 kmh ENE 4.0 mph6.4 kmh 30.18 in1022.0 mb 0.00 in0.0 mm 0.00 in0.0 mm 0.00 in0.0 mm
06:08 PM 59.1°F15.1°C 48.5°F9.2°C 68% 1.6 mph ENE2.6 kmh ENE 4.0 mph6.4 kmh 30.18 in1022.0 mb 0.00 in0.0 mm 0.00 in0.0 mm 0.00 in0.0 mm
06:13 PM 59.1°F15.1°C 48.7°F9.3°C 68% 2.4 mph ENE3.9 kmh ENE 4.0 mph6.4 kmh 30.18 in1022.0 mb 0.00 in0.0 mm 0.00 in0.0 mm 0.00 in0.0 mm
06:18 PM 59.0°F15.0°C 48.6°F9.2°C 68% 1.5 mph ENE2.4 kmh ENE 4.0 mph6.4 kmh 30.18 in1022.0 mb 0.00 in0.0 mm 0.00 in0.0 mm 0.00 in0.0 mm
06:23 PM 58.9°F14.9°C 48.5°F9.2°C 68% 2.0 mph ENE3.2 kmh ENE 3.0 mph4.8 kmh 30.17 in1021.7 mb 0.00 in0.0 mm 0.00 in0.0 mm 0.00 in0.0 mm
06:28 PM 58.8°F14.9°C 48.4°F9.1°C 68% 1.6 mph E2.6 kmh E 3.0 mph4.8 kmh 30.17 in1021.7 mb 0.00 in0.0 mm 0.00 in0.0 mm 0.00 in0.0 mm
06:33 PM 58.8°F14.9°C 48.4°F9.1°C 68% 1.0 mph ENE1.6 kmh ENE 4.0 mph6.4 kmh 30.17 in1021.7 mb 0.00 in0.0 mm 0.00 in0.0 mm 0.00 in0.0 mm
06:38 PM 58.7°F14.8°C 48.3°F9.1°C 68% 2.3 mph ENE3.7 kmh ENE 4.0 mph6.4 kmh 30.17 in1021.7 mb 0.00 in0.0 mm 0.00 in0.0 mm 0.00 in0.0 mm
06:43 PM 58.6°F14.8°C 48.6°F9.2°C 69% 1.3 mph ENE2.1 kmh ENE 4.0 mph6.4 kmh 30.17 in1021.7 mb 0.00 in0.0 mm 0.00 in0.0 mm 0.00 in0.0 mm
06:48 PM 58.5°F14.7°C 48.5°F9.2°C 69% 1.3 mph ENE2.1 kmh ENE 4.0 mph6.4 kmh 30.17 in1021.7 mb 0.00 in0.0 mm 0.00 in0.0 mm 0.00 in0.0 mm
06:53 PM 58.5°F14.7°C 48.5°F9.2°C 69% 1.0 mph ENE1.6 kmh ENE 3.0 mph4.8 kmh 30.17 in1021.7 mb 0.00 in0.0 mm 0.00 in0.0 mm 0.00 in0.0 mm
06:58 PM 58.4°F14.7°C 48.7°F9.3°C 70% 1.0 mph ENE1.6 kmh ENE 3.0 mph4.8 kmh 30.17 in1021.7 mb 0.00 in0.0 mm 0.00 in0.0 mm 0.00 in0.0 mm
07:03 PM 58.4°F14.7°C 48.8°F9.3°C 70% 1.4 mph ENE2.3 kmh ENE 3.0 mph4.8 kmh 30.17 in1021.7 mb 0.00 in0.0 mm 0.00 in0.0 mm 0.00 in0.0 mm
07:08 PM 58.3°F14.6°C 48.7°F9.3°C 70% 1.3 mph NE2.1 kmh NE 2.0 mph3.2 kmh 30.17 in1021.7 mb 0.00 in0.0 mm 0.00 in0.0 mm 0.00 in0.0 mm
07:13 PM 58.2°F14.6°C 48.6°F9.2°C 70% 1.5 mph NNE2.4 kmh NNE 4.0 mph6.4 kmh 30.17 in1021.7 mb 0.00 in0.0 mm 0.00 in0.0 mm 0.00 in0.0 mm
07:18 PM 58.2°F14.6°C 48.5°F9.2°C 70% 1.2 mph NE1.9 kmh NE 4.0 mph6.4 kmh 30.17 in1021.7 mb 0.00 in0.0 mm 0.00 in0.0 mm 0.00 in0.0 mm
07:23 PM 58.1°F14.5°C 48.5°F9.2°C 70% 1.4 mph NE2.3 kmh NE 4.0 mph6.4 kmh 30.17 in1021.7 mb 0.00 in0.0 mm 0.00 in0.0 mm 0.00 in0.0 mm
07:28 PM 58.0°F14.4°C 48.4°F9.1°C 70% Calm Calm 2.0 mph3.2 kmh 30.17 in1021.7 mb 0.00 in0.0 mm 0.00 in0.0 mm 0.00 in0.0 mm
07:33 PM 58.1°F14.5°C 48.4°F9.1°C 70% 1.8 mph ENE2.9 kmh ENE 4.0 mph6.4 kmh 30.17 in1021.7 mb 0.00 in0.0 mm 0.00 in0.0 mm 0.00 in0.0 mm
07:38 PM 58.1°F14.5°C 48.4°F9.1°C 70% 2.6 mph NE4.2 kmh NE 4.0 mph6.4 kmh 30.17 in1021.7 mb 0.00 in0.0 mm 0.00 in0.0 mm 0.00 in0.0 mm
07:43 PM 58.1°F14.5°C 48.1°F8.9°C 69% 1.7 mph NE2.7 kmh NE 4.0 mph6.4 kmh 30.17 in1021.7 mb 0.00 in0.0 mm 0.00 in0.0 mm 0.00 in0.0 mm
07:48 PM 58.0°F14.4°C 48.0°F8.9°C 69% 2.1 mph ENE3.4 kmh ENE 4.0 mph6.4 kmh 30.17 in1021.7 mb 0.00 in0.0 mm 0.00 in0.0 mm 0.00 in0.0 mm
07:53 PM 58.0°F14.4°C 48.0°F8.9°C 69% 2.9 mph NE4.7 kmh NE 6.0 mph9.7 kmh 30.17 in1021.7 mb 0.00 in0.0 mm 0.00 in0.0 mm 0.00 in0.0 mm
07:58 PM 57.9°F14.4°C 47.9°F8.8°C 69% 1.6 mph NE2.6 kmh NE 6.0 mph9.7 kmh 30.17 in1021.7 mb 0.00 in0.0 mm 0.00 in0.0 mm 0.00 in0.0 mm
08:03 PM 57.9°F14.4°C 47.8°F8.8°C 69% 1.9 mph NE3.1 kmh NE 6.0 mph9.7 kmh 30.17 in1021.7 mb 0.00 in0.0 mm 0.00 in0.0 mm 0.00 in0.0 mm
08:08 PM 57.8°F14.3°C 47.8°F8.8°C 69% 1.0 mph ENE1.6 kmh ENE 6.0 mph9.7 kmh 30.17 in1021.7 mb 0.00 in0.0 mm 0.00 in0.0 mm 0.00 in0.0 mm
08:13 PM 57.8°F14.3°C 47.7°F8.7°C 69% Calm Calm 4.0 mph6.4 kmh 30.17 in1021.7 mb 0.00 in0.0 mm 0.00 in0.0 mm 0.00 in0.0 mm
08:18 PM 57.7°F14.3°C 47.6°F8.7°C 69% 1.5 mph NE2.4 kmh NE 3.0 mph4.8 kmh 30.17 in1021.7 mb 0.00 in0.0 mm 0.00 in0.0 mm 0.00 in0.0 mm
08:23 PM 57.8°F14.3°C 47.8°F8.8°C 69% 1.4 mph NE2.3 kmh NE 3.0 mph4.8 kmh 30.17 in1021.7 mb 0.00 in0.0 mm 0.00 in0.0 mm 0.00 in0.0 mm
08:28 PM 57.6°F14.2°C 48.0°F8.9°C 70% 1.0 mph NE1.6 kmh NE 3.0 mph4.8 kmh 30.17 in1021.7 mb 0.00 in0.0 mm 0.00 in0.0 mm 0.00 in0.0 mm
08:33 PM 57.4°F14.1°C 47.7°F8.7°C 70% 1.0 mph NE1.6 kmh NE 3.0 mph4.8 kmh 30.17 in1021.7 mb 0.00 in0.0 mm 0.00 in0.0 mm 0.00 in0.0 mm
08:38 PM 57.3°F14.1°C 48.1°F8.9°C 71% Calm Calm 3.0 mph4.8 kmh 30.17 in1021.7 mb 0.00 in0.0 mm 0.00 in0.0 mm 0.00 in0.0 mm
08:43 PM 57.1°F13.9°C 47.9°F8.8°C 71% 1.0 mph NE1.6 kmh NE 2.0 mph3.2 kmh 30.17 in1021.7 mb 0.00 in0.0 mm 0.00 in0.0 mm 0.00 in0.0 mm
08:48 PM 57.1°F13.9°C 47.8°F8.8°C 71% 1.6 mph NE2.6 kmh NE 3.0 mph4.8 kmh 30.17 in1021.7 mb 0.00 in0.0 mm 0.00 in0.0 mm 0.00 in0.0 mm
08:53 PM 57.2°F14.0°C 48.0°F8.9°C 71% 1.0 mph NE1.6 kmh NE 3.0 mph4.8 kmh 30.17 in1021.7 mb 0.00 in0.0 mm 0.00 in0.0 mm 0.00 in0.0 mm
08:58 PM 57.2°F14.0°C 48.0°F8.9°C 71% 1.3 mph NE2.1 kmh NE 3.0 mph4.8 kmh 30.17 in1021.7 mb 0.00 in0.0 mm 0.00 in0.0 mm 0.00 in0.0 mm
09:03 PM 57.1°F13.9°C 47.9°F8.8°C 71% 1.2 mph NE1.9 kmh NE 3.0 mph4.8 kmh 30.17 in1021.7 mb 0.00 in0.0 mm 0.00 in0.0 mm 0.00 in0.0 mm
09:08 PM 57.0°F13.9°C 47.8°F8.8°C 71% 1.0 mph NE1.6 kmh NE 2.0 mph3.2 kmh 30.17 in1021.7 mb 0.00 in0.0 mm 0.00 in0.0 mm 0.00 in0.0 mm
09:13 PM 57.1°F13.9°C 47.9°F8.8°C 71% Calm Calm 2.0 mph3.2 kmh 30.18 in1022.0 mb 0.00 in0.0 mm 0.00 in0.0 mm 0.00 in0.0 mm
09:18 PM 57.2°F14.0°C 47.9°F8.8°C 71% Calm Calm 2.0 mph3.2 kmh 30.18 in1022.0 mb 0.00 in0.0 mm 0.00 in0.0 mm 0.00 in0.0 mm
09:23 PM 57.4°F14.1°C 47.8°F8.8°C 70% 1.0 mph NE1.6 kmh NE 1.0 mph1.6 kmh 30.18 in1022.0 mb 0.00 in0.0 mm 0.00 in0.0 mm 0.00 in0.0 mm
09:28 PM 57.5°F14.2°C 47.9°F8.8°C 70% 1.0 mph NE1.6 kmh NE 1.0 mph1.6 kmh 30.18 in1022.0 mb 0.00 in0.0 mm 0.00 in0.0 mm 0.00 in0.0 mm
09:33 PM 57.6°F14.2°C 48.0°F8.9°C 70% Calm Calm 1.0 mph1.6 kmh 30.18 in1022.0 mb 0.00 in0.0 mm 0.00 in0.0 mm 0.00 in0.0 mm
09:38 PM 57.6°F14.2°C 48.0°F8.9°C 70% 1.0 mph NE1.6 kmh NE 1.0 mph1.6 kmh 30.18 in1022.0 mb 0.00 in0.0 mm 0.00 in0.0 mm 0.00 in0.0 mm
09:43 PM 57.5°F14.2°C 47.8°F8.8°C 70% Calm Calm 1.0 mph1.6 kmh 30.18 in1022.0 mb 0.00 in0.0 mm 0.00 in0.0 mm 0.00 in0.0 mm
09:48 PM 57.5°F14.2°C 47.8°F8.8°C 70% 1.0 mph NE1.6 kmh NE 1.0 mph1.6 kmh 30.17 in1021.7 mb 0.00 in0.0 mm 0.00 in0.0 mm 0.00 in0.0 mm
09:53 PM 57.5°F14.2°C 47.9°F8.8°C 70% 1.2 mph ENE1.9 kmh ENE 2.0 mph3.2 kmh 30.17 in1021.7 mb 0.00 in0.0 mm 0.00 in0.0 mm 0.00 in0.0 mm
09:58 PM 57.5°F14.2°C 47.8°F8.8°C 70% 1.5 mph ENE2.4 kmh ENE 3.0 mph4.8 kmh 30.17 in1021.7 mb 0.00 in0.0 mm 0.00 in0.0 mm 0.00 in0.0 mm
10:03 PM 57.4°F14.1°C 47.8°F8.8°C 70% 1.3 mph ENE2.1 kmh ENE 3.0 mph4.8 kmh 30.17 in1021.7 mb 0.00 in0.0 mm 0.00 in0.0 mm 0.00 in0.0 mm
10:08 PM 57.4°F14.1°C 47.8°F8.8°C 70% 1.5 mph ENE2.4 kmh ENE 3.0 mph4.8 kmh 30.17 in1021.7 mb 0.00 in0.0 mm 0.00 in0.0 mm 0.00 in0.0 mm
10:13 PM 57.4°F14.1°C 48.1°F8.9°C 71% 1.4 mph ENE2.3 kmh ENE 3.0 mph4.8 kmh 30.17 in1021.7 mb 0.00 in0.0 mm 0.00 in0.0 mm 0.00 in0.0 mm
10:18 PM 57.2°F14.0°C 48.0°F8.9°C 71% 1.6 mph NE2.6 kmh NE 3.0 mph4.8 kmh 30.17 in1021.7 mb 0.00 in0.0 mm 0.00 in0.0 mm 0.00 in0.0 mm
10:23 PM 57.1°F13.9°C 47.9°F8.8°C 71% 2.1 mph NE3.4 kmh NE 3.0 mph4.8 kmh 30.17 in1021.7 mb 0.00 in0.0 mm 0.00 in0.0 mm 0.00 in0.0 mm
10:28 PM 57.0°F13.9°C 47.8°F8.8°C 71% 2.2 mph ENE3.5 kmh ENE 4.0 mph6.4 kmh 30.17 in1021.7 mb 0.00 in0.0 mm 0.00 in0.0 mm 0.00 in0.0 mm
10:33 PM 57.0°F13.9°C 47.8°F8.8°C 71% 1.1 mph ENE1.8 kmh ENE 4.0 mph6.4 kmh 30.17 in1021.7 mb 0.00 in0.0 mm 0.00 in0.0 mm 0.00 in0.0 mm
10:38 PM 56.9°F13.8°C 47.7°F8.7°C 71% 1.0 mph E1.6 kmh E 4.0 mph6.4 kmh 30.17 in1021.7 mb 0.00 in0.0 mm 0.00 in0.0 mm 0.00 in0.0 mm
10:43 PM 56.8°F13.8°C 47.5°F8.6°C 71% 1.0 mph E1.6 kmh E 4.0 mph6.4 kmh 30.17 in1021.7 mb 0.00 in0.0 mm 0.00 in0.0 mm 0.00 in0.0 mm
10:48 PM 56.7°F13.7°C 47.5°F8.6°C 71% 1.0 mph E1.6 kmh E 3.0 mph4.8 kmh 30.17 in1021.7 mb 0.00 in0.0 mm 0.00 in0.0 mm 0.00 in0.0 mm
10:53 PM 56.5°F13.6°C 47.7°F8.7°C 72% Calm Calm 1.0 mph1.6 kmh 30.17 in1021.7 mb 0.00 in0.0 mm 0.00 in0.0 mm 0.00 in0.0 mm
10:58 PM 56.4°F13.6°C 47.6°F8.7°C 72% Calm Calm 1.0 mph1.6 kmh 30.17 in1021.7 mb 0.00 in0.0 mm 0.00 in0.0 mm 0.00 in0.0 mm
11:03 PM 56.3°F13.5°C 47.5°F8.6°C 72% Calm Calm 1.0 mph1.6 kmh 30.17 in1021.7 mb 0.00 in0.0 mm 0.00 in0.0 mm 0.00 in0.0 mm
11:08 PM 56.4°F13.6°C 47.6°F8.7°C 72% Calm Calm 1.0 mph1.6 kmh 30.17 in1021.7 mb 0.00 in0.0 mm 0.00 in0.0 mm 0.00 in0.0 mm
11:13 PM 56.5°F13.6°C 47.7°F8.7°C 72% 1.2 mph E1.9 kmh E 2.0 mph3.2 kmh 30.17 in1021.7 mb 0.00 in0.0 mm 0.00 in0.0 mm 0.00 in0.0 mm
11:18 PM 56.4°F13.6°C 47.6°F8.7°C 72% 1.0 mph E1.6 kmh E 2.0 mph3.2 kmh 30.17 in1021.7 mb 0.00 in0.0 mm 0.00 in0.0 mm 0.00 in0.0 mm
11:23 PM 56.3°F13.5°C 47.5°F8.6°C 72% 1.0 mph E1.6 kmh E 2.0 mph3.2 kmh 30.17 in1021.7 mb 0.00 in0.0 mm 0.00 in0.0 mm 0.00 in0.0 mm
11:28 PM 56.3°F13.5°C 47.9°F8.8°C 73% 1.1 mph E1.8 kmh E 2.0 mph3.2 kmh 30.16 in1021.3 mb 0.00 in0.0 mm 0.00 in0.0 mm 0.00 in0.0 mm
11:33 PM 56.2°F13.4°C 47.4°F8.6°C 72% 1.8 mph ENE2.9 kmh ENE 3.0 mph4.8 kmh 30.16 in1021.3 mb 0.00 in0.0 mm 0.00 in0.0 mm 0.00 in0.0 mm
11:38 PM 56.3°F13.5°C 47.5°F8.6°C 72% 2.0 mph ENE3.2 kmh ENE 3.0 mph4.8 kmh 30.16 in1021.3 mb 0.00 in0.0 mm 0.00 in0.0 mm 0.00 in0.0 mm
11:43 PM 56.4°F13.6°C 47.6°F8.7°C 72% 1.5 mph ENE2.4 kmh ENE 3.0 mph4.8 kmh 30.16 in1021.3 mb 0.00 in0.0 mm 0.00 in0.0 mm 0.00 in0.0 mm
11:48 PM 56.5°F13.6°C 47.3°F8.5°C 71% 1.3 mph ENE2.1 kmh ENE 3.0 mph4.8 kmh 30.16 in1021.3 mb 0.00 in0.0 mm 0.00 in0.0 mm 0.00 in0.0 mm
11:53 PM 56.6°F13.7°C 47.4°F8.6°C 71% 1.7 mph ENE2.7 kmh ENE 3.0 mph4.8 kmh 30.16 in1021.3 mb 0.00 in0.0 mm 0.00 in0.0 mm 0.00 in0.0 mm
11:58 PM 56.5°F13.6°C 47.7°F8.7°C 72% Calm Calm 3.0 mph4.8 kmh 30.16 in1021.3 mb 0.00 in0.0 mm 0.00 in0.0 mm 0.00 in0.0 mm